sensor_id;sensor_type;location;lat;lon;timestamp;pressure;altitude;pressure_sealevel;temperature;humidity
67842;BME280;54642;59.126;37.876;2023-07-02T00:01:49;97923.28;;;19.19;70.04
67842;BME280;54642;59.126;37.876;2023-07-02T00:04:16;97906.59;;;19.09;70.48
67842;BME280;54642;59.126;37.876;2023-07-02T00:06:46;97895.41;;;18.94;70.49
67842;BME280;54642;59.126;37.876;2023-07-02T00:09:12;97920.66;;;19.08;70.71
67842;BME280;54642;59.126;37.876;2023-07-02T00:11:39;97917.41;;;19.04;70.83
67842;BME280;54642;59.126;37.876;2023-07-02T00:14:06;97936.28;;;19.09;70.82
67842;BME280;54642;59.126;37.876;2023-07-02T00:16:32;97919.22;;;19.03;70.71
67842;BME280;54642;59.126;37.876;2023-07-02T00:18:58;97913.22;;;19.01;71.04
67842;BME280;54642;59.126;37.876;2023-07-02T00:21:26;97910.34;;;19.04;71.08
67842;BME280;54642;59.126;37.876;2023-07-02T00:23:57;97905.78;;;18.95;70.92
67842;BME280;54642;59.126;37.876;2023-07-02T00:26:24;97892.88;;;18.92;71.27
67842;BME280;54642;59.126;37.876;2023-07-02T00:28:51;97916.59;;;19.03;71.32
67842;BME280;54642;59.126;37.876;2023-07-02T00:31:17;97882.25;;;18.82;71.29
67842;BME280;54642;59.126;37.876;2023-07-02T00:33:43;97886.75;;;18.80;71.05
67842;BME280;54642;59.126;37.876;2023-07-02T00:36:09;97899.00;;;18.93;71.16
67842;BME280;54642;59.126;37.876;2023-07-02T00:38:45;97910.00;;;18.98;71.28
67842;BME280;54642;59.126;37.876;2023-07-02T00:41:12;97913.44;;;18.98;71.31
67842;BME280;54642;59.126;37.876;2023-07-02T00:43:38;97908.63;;;18.92;71.68
67842;BME280;54642;59.126;37.876;2023-07-02T00:46:17;97913.66;;;18.95;71.65
67842;BME280;54642;59.126;37.876;2023-07-02T00:48:47;97890.56;;;18.76;71.75
67842;BME280;54642;59.126;37.876;2023-07-02T00:51:18;97897.34;;;18.79;71.79
67842;BME280;54642;59.126;37.876;2023-07-02T00:53:46;97911.19;;;18.81;71.52
67842;BME280;54642;59.126;37.876;2023-07-02T00:56:12;97906.06;;;18.79;71.95
67842;BME280;54642;59.126;37.876;2023-07-02T00:58:41;97918.19;;;18.93;72.09
67842;BME280;54642;59.126;37.876;2023-07-02T01:01:16;97858.75;;;18.57;72.13
67842;BME280;54642;59.126;37.876;2023-07-02T01:06:31;97915.06;;;18.88;72.17
67842;BME280;54642;59.126;37.876;2023-07-02T01:08:59;97922.34;;;18.84;72.27
67842;BME280;54642;59.126;37.876;2023-07-02T01:11:49;97926.28;;;18.90;72.08
67842;BME280;54642;59.126;37.876;2023-07-02T01:14:22;97915.19;;;18.86;71.85
67842;BME280;54642;59.126;37.876;2023-07-02T01:16:52;97911.84;;;18.84;71.94
67842;BME280;54642;59.126;37.876;2023-07-02T01:19:36;97891.94;;;18.69;72.17
67842;BME280;54642;59.126;37.876;2023-07-02T01:22:06;97922.97;;;18.75;72.30
67842;BME280;54642;59.126;37.876;2023-07-02T01:24:36;97885.81;;;18.57;72.57
67842;BME280;54642;59.126;37.876;2023-07-02T01:27:02;97883.63;;;18.51;72.34
67842;BME280;54642;59.126;37.876;2023-07-02T01:29:29;97918.44;;;18.77;72.53
67842;BME280;54642;59.126;37.876;2023-07-02T01:31:56;97926.22;;;18.79;72.36
67842;BME280;54642;59.126;37.876;2023-07-02T01:34:23;97915.81;;;18.77;72.54
67842;BME280;54642;59.126;37.876;2023-07-02T01:36:49;97928.84;;;18.79;72.54
67842;BME280;54642;59.126;37.876;2023-07-02T01:39:17;97874.63;;;18.42;72.44
67842;BME280;54642;59.126;37.876;2023-07-02T01:41:49;97912.31;;;18.65;72.50
67842;BME280;54642;59.126;37.876;2023-07-02T01:44:16;97888.59;;;18.43;72.91
67842;BME280;54642;59.126;37.876;2023-07-02T01:46:43;97931.41;;;18.67;72.76
67842;BME280;54642;59.126;37.876;2023-07-02T01:49:09;97928.16;;;18.64;73.31
67842;BME280;54642;59.126;37.876;2023-07-02T01:51:35;97931.00;;;18.61;73.12
67842;BME280;54642;59.126;37.876;2023-07-02T01:54:01;97907.72;;;18.56;73.52
67842;BME280;54642;59.126;37.876;2023-07-02T01:56:27;97921.78;;;18.55;73.15
67842;BME280;54642;59.126;37.876;2023-07-02T01:58:56;97871.22;;;18.29;73.08
67842;BME280;54642;59.126;37.876;2023-07-02T02:01:22;97929.94;;;18.63;73.65
67842;BME280;54642;59.126;37.876;2023-07-02T02:03:48;97920.97;;;18.42;73.46
67842;BME280;54642;59.126;37.876;2023-07-02T02:06:14;97918.78;;;18.48;73.68
67842;BME280;54642;59.126;37.876;2023-07-02T02:08:39;97925.34;;;18.54;73.36
67842;BME280;54642;59.126;37.876;2023-07-02T02:11:05;97878.56;;;18.24;73.54
67842;BME280;54642;59.126;37.876;2023-07-02T02:13:31;97937.03;;;18.50;73.73
67842;BME280;54642;59.126;37.876;2023-07-02T02:15:58;97943.19;;;18.49;74.20
67842;BME280;54642;59.126;37.876;2023-07-02T02:18:23;97937.75;;;18.52;74.09
67842;BME280;54642;59.126;37.876;2023-07-02T02:20:49;97934.59;;;18.47;74.05
67842;BME280;54642;59.126;37.876;2023-07-02T02:23:15;97908.13;;;18.39;74.09
67842;BME280;54642;59.126;37.876;2023-07-02T02:25:41;97889.66;;;18.27;73.77
67842;BME280;54642;59.126;37.876;2023-07-02T02:28:09;97922.47;;;18.46;74.00
67842;BME280;54642;59.126;37.876;2023-07-02T02:30:35;97922.66;;;18.43;74.03
67842;BME280;54642;59.126;37.876;2023-07-02T02:33:01;97938.91;;;18.48;74.27
67842;BME280;54642;59.126;37.876;2023-07-02T02:35:27;97845.28;;;18.00;74.21
67842;BME280;54642;59.126;37.876;2023-07-02T02:37:53;97929.78;;;18.54;74.11
67842;BME280;54642;59.126;37.876;2023-07-02T02:40:20;97913.88;;;18.44;74.48
67842;BME280;54642;59.126;37.876;2023-07-02T02:42:46;97902.34;;;18.34;74.57
67842;BME280;54642;59.126;37.876;2023-07-02T02:45:12;97883.91;;;18.22;74.41
67842;BME280;54642;59.126;37.876;2023-07-02T02:47:38;97890.53;;;18.28;74.62
67842;BME280;54642;59.126;37.876;2023-07-02T02:50:05;97934.19;;;18.53;74.55
67842;BME280;54642;59.126;37.876;2023-07-02T02:52:31;97880.81;;;18.17;74.61
67842;BME280;54642;59.126;37.876;2023-07-02T02:54:57;97887.69;;;18.18;74.66
67842;BME280;54642;59.126;37.876;2023-07-02T02:57:23;97939.75;;;18.48;74.34
67842;BME280;54642;59.126;37.876;2023-07-02T02:59:49;97908.63;;;18.31;74.62
67842;BME280;54642;59.126;37.876;2023-07-02T03:02:15;97893.25;;;18.26;74.13
67842;BME280;54642;59.126;37.876;2023-07-02T03:04:41;97944.22;;;18.59;74.68
67842;BME280;54642;59.126;37.876;2023-07-02T03:07:09;97895.41;;;18.33;74.50
67842;BME280;54642;59.126;37.876;2023-07-02T03:09:35;97939.19;;;18.56;74.43
67842;BME280;54642;59.126;37.876;2023-07-02T03:12:01;97903.28;;;18.33;74.17
67842;BME280;54642;59.126;37.876;2023-07-02T03:14:27;97949.25;;;18.62;74.44
67842;BME280;54642;59.126;37.876;2023-07-02T03:16:53;97910.94;;;18.36;74.37
67842;BME280;54642;59.126;37.876;2023-07-02T03:19:20;97903.19;;;18.34;74.30
67842;BME280;54642;59.126;37.876;2023-07-02T03:21:45;97953.06;;;18.58;74.54
67842;BME280;54642;59.126;37.876;2023-07-02T03:24:11;97927.72;;;18.46;74.17
67842;BME280;54642;59.126;37.876;2023-07-02T03:26:47;97906.34;;;18.26;74.33
67842;BME280;54642;59.126;37.876;2023-07-02T03:29:13;97960.53;;;18.52;74.25
67842;BME280;54642;59.126;37.876;2023-07-02T03:31:39;97949.53;;;18.46;74.16
67842;BME280;54642;59.126;37.876;2023-07-02T03:34:08;97934.22;;;18.40;74.03
67842;BME280;54642;59.126;37.876;2023-07-02T03:36:35;97947.00;;;18.45;74.20
67842;BME280;54642;59.126;37.876;2023-07-02T03:39:01;97956.09;;;18.52;74.20
67842;BME280;54642;59.126;37.876;2023-07-02T03:41:28;97952.44;;;18.55;74.12
67842;BME280;54642;59.126;37.876;2023-07-02T03:43:54;97922.25;;;18.36;74.10
67842;BME280;54642;59.126;37.876;2023-07-02T03:46:20;97950.91;;;18.63;74.00
67842;BME280;54642;59.126;37.876;2023-07-02T03:48:46;97957.03;;;18.64;73.75
67842;BME280;54642;59.126;37.876;2023-07-02T03:51:11;97933.00;;;18.57;73.49
67842;BME280;54642;59.126;37.876;2023-07-02T03:53:41;97951.22;;;18.72;73.55
67842;BME280;54642;59.126;37.876;2023-07-02T03:56:07;97933.69;;;18.72;73.64
67842;BME280;54642;59.126;37.876;2023-07-02T03:58:33;97959.47;;;18.91;73.38
67842;BME280;54642;59.126;37.876;2023-07-02T04:00:59;97945.63;;;18.89;73.11
67842;BME280;54642;59.126;37.876;2023-07-02T04:03:25;97943.84;;;18.90;72.43
67842;BME280;54642;59.126;37.876;2023-07-02T04:05:51;97897.53;;;18.64;72.20
67842;BME280;54642;59.126;37.876;2023-07-02T04:08:17;97958.19;;;18.97;72.43
67842;BME280;54642;59.126;37.876;2023-07-02T04:10:43;97938.91;;;18.85;72.14
67842;BME280;54642;59.126;37.876;2023-07-02T04:13:09;97948.50;;;18.97;71.57
67842;BME280;54642;59.126;37.876;2023-07-02T04:15:35;97955.22;;;19.01;71.41
67842;BME280;54642;59.126;37.876;2023-07-02T04:18:01;97969.59;;;19.09;71.65
67842;BME280;54642;59.126;37.876;2023-07-02T04:20:27;97966.97;;;19.09;70.97
67842;BME280;54642;59.126;37.876;2023-07-02T04:22:55;97956.47;;;19.09;71.10
67842;BME280;54642;59.126;37.876;2023-07-02T04:25:21;97933.06;;;19.05;70.40
67842;BME280;54642;59.126;37.876;2023-07-02T04:27:47;97942.03;;;19.14;70.21
67842;BME280;54642;59.126;37.876;2023-07-02T04:30:14;97936.06;;;19.12;69.78
67842;BME280;54642;59.126;37.876;2023-07-02T04:32:40;97955.09;;;19.27;69.88
67842;BME280;54642;59.126;37.876;2023-07-02T04:35:09;97967.19;;;19.41;69.70
67842;BME280;54642;59.126;37.876;2023-07-02T04:37:36;97955.63;;;19.43;69.63
67842;BME280;54642;59.126;37.876;2023-07-02T04:40:03;97958.00;;;19.47;68.88
67842;BME280;54642;59.126;37.876;2023-07-02T04:42:39;97959.22;;;19.42;68.83
67842;BME280;54642;59.126;37.876;2023-07-02T04:45:07;97965.91;;;19.47;68.29
67842;BME280;54642;59.126;37.876;2023-07-02T04:47:34;97960.38;;;19.38;67.75
67842;BME280;54642;59.126;37.876;2023-07-02T04:50:00;97980.84;;;19.46;67.62
67842;BME280;54642;59.126;37.876;2023-07-02T04:52:27;97979.25;;;19.43;67.35
67842;BME280;54642;59.126;37.876;2023-07-02T04:54:53;97957.94;;;19.24;67.13
67842;BME280;54642;59.126;37.876;2023-07-02T04:57:18;97971.94;;;19.36;67.15
67842;BME280;54642;59.126;37.876;2023-07-02T04:59:44;97953.47;;;19.49;66.67
67842;BME280;54642;59.126;37.876;2023-07-02T05:02:10;97961.16;;;19.63;66.36
67842;BME280;54642;59.126;37.876;2023-07-02T05:04:36;97965.63;;;19.85;66.05
67842;BME280;54642;59.126;37.876;2023-07-02T05:07:05;97895.09;;;19.45;65.54
67842;BME280;54642;59.126;37.876;2023-07-02T05:09:34;97986.00;;;19.94;65.42
67842;BME280;54642;59.126;37.876;2023-07-02T05:12:00;97981.34;;;20.09;65.56
67842;BME280;54642;59.126;37.876;2023-07-02T05:14:25;97919.19;;;19.86;65.29
67842;BME280;54642;59.126;37.876;2023-07-02T05:16:52;97982.75;;;20.13;64.94
67842;BME280;54642;59.126;37.876;2023-07-02T05:19:18;97967.00;;;20.02;65.33
67842;BME280;54642;59.126;37.876;2023-07-02T05:21:44;97964.94;;;20.17;65.21
67842;BME280;54642;59.126;37.876;2023-07-02T05:24:10;97990.66;;;20.36;65.36
67842;BME280;54642;59.126;37.876;2023-07-02T05:26:35;97988.97;;;20.35;64.81
67842;BME280;54642;59.126;37.876;2023-07-02T05:29:02;97959.81;;;20.04;65.11
67842;BME280;54642;59.126;37.876;2023-07-02T05:31:27;97994.84;;;20.16;65.53
67842;BME280;54642;59.126;37.876;2023-07-02T05:33:54;97951.31;;;19.89;65.40
67842;BME280;54642;59.126;37.876;2023-07-02T05:36:20;98000.22;;;20.26;65.20
67842;BME280;54642;59.126;37.876;2023-07-02T05:38:46;98010.03;;;20.35;64.93
67842;BME280;54642;59.126;37.876;2023-07-02T05:41:21;97991.28;;;20.28;64.68
67842;BME280;54642;59.126;37.876;2023-07-02T05:43:47;97983.50;;;20.27;64.94
67842;BME280;54642;59.126;37.876;2023-07-02T05:46:14;97981.94;;;20.24;64.68
67842;BME280;54642;59.126;37.876;2023-07-02T05:48:41;98006.44;;;20.36;64.85
67842;BME280;54642;59.126;37.876;2023-07-02T05:51:10;97964.72;;;20.20;64.34
67842;BME280;54642;59.126;37.876;2023-07-02T05:53:37;97977.75;;;20.22;64.51
67842;BME280;54642;59.126;37.876;2023-07-02T05:56:03;97967.69;;;20.04;64.10
67842;BME280;54642;59.126;37.876;2023-07-02T05:58:29;98019.94;;;20.31;64.25
67842;BME280;54642;59.126;37.876;2023-07-02T06:00:55;98029.16;;;20.26;64.65
67842;BME280;54642;59.126;37.876;2023-07-02T06:03:21;97995.44;;;20.19;64.47
67842;BME280;54642;59.126;37.876;2023-07-02T06:05:48;98000.69;;;20.42;64.04
67842;BME280;54642;59.126;37.876;2023-07-02T06:08:18;97983.13;;;20.54;63.63
67842;BME280;54642;59.126;37.876;2023-07-02T06:10:46;97960.38;;;20.53;63.04
67842;BME280;54642;59.126;37.876;2023-07-02T06:13:13;97928.94;;;20.40;63.03
67842;BME280;54642;59.126;37.876;2023-07-02T06:15:39;97962.66;;;20.57;62.43
67842;BME280;54642;59.126;37.876;2023-07-02T06:18:07;97983.25;;;20.75;62.44
67842;BME280;54642;59.126;37.876;2023-07-02T06:20:33;97985.81;;;20.98;62.57
67842;BME280;54642;59.126;37.876;2023-07-02T06:22:59;97997.22;;;21.19;61.85
67842;BME280;54642;59.126;37.876;2023-07-02T06:25:26;97935.47;;;20.91;61.81
67842;BME280;54642;59.126;37.876;2023-07-02T06:27:52;97958.09;;;21.14;61.31
67842;BME280;54642;59.126;37.876;2023-07-02T06:30:24;97988.91;;;21.35;60.79
67842;BME280;54642;59.126;37.876;2023-07-02T06:32:50;97992.81;;;21.52;60.97
67842;BME280;54642;59.126;37.876;2023-07-02T06:35:16;97955.34;;;21.48;60.98
67842;BME280;54642;59.126;37.876;2023-07-02T06:37:42;97999.84;;;21.84;60.51
67842;BME280;54642;59.126;37.876;2023-07-02T06:40:08;97981.75;;;21.79;59.90
67842;BME280;54642;59.126;37.876;2023-07-02T06:42:34;98011.06;;;22.07;59.58
67842;BME280;54642;59.126;37.876;2023-07-02T06:45:02;98007.34;;;22.09;58.98
67842;BME280;54642;59.126;37.876;2023-07-02T06:47:29;97993.50;;;21.96;59.00
67842;BME280;54642;59.126;37.876;2023-07-02T06:49:55;98006.41;;;22.20;58.69
67842;BME280;54642;59.126;37.876;2023-07-02T06:52:21;98002.88;;;22.31;58.72
67842;BME280;54642;59.126;37.876;2023-07-02T06:54:47;97989.66;;;22.00;58.70
67842;BME280;54642;59.126;37.876;2023-07-02T06:57:13;98002.41;;;21.95;58.43
67842;BME280;54642;59.126;37.876;2023-07-02T06:59:39;98013.06;;;21.73;59.24
67842;BME280;54642;59.126;37.876;2023-07-02T07:02:06;98016.19;;;21.45;59.84
67842;BME280;54642;59.126;37.876;2023-07-02T07:04:32;97997.75;;;21.13;60.58
67842;BME280;54642;59.126;37.876;2023-07-02T07:06:58;97976.72;;;20.90;60.04
67842;BME280;54642;59.126;37.876;2023-07-02T07:09:24;97995.75;;;20.94;60.32
67842;BME280;54642;59.126;37.876;2023-07-02T07:11:53;98007.72;;;20.98;60.32
67842;BME280;54642;59.126;37.876;2023-07-02T07:14:19;98001.53;;;21.20;60.24
67842;BME280;54642;59.126;37.876;2023-07-02T07:16:45;97983.50;;;21.37;59.69
67842;BME280;54642;59.126;37.876;2023-07-02T07:19:11;97998.59;;;21.67;59.26
67842;BME280;54642;59.126;37.876;2023-07-02T07:21:37;98011.84;;;21.98;59.28
67842;BME280;54642;59.126;37.876;2023-07-02T07:24:04;98012.88;;;22.06;58.28
67842;BME280;54642;59.126;37.876;2023-07-02T07:26:30;97961.28;;;21.93;57.68
67842;BME280;54642;59.126;37.876;2023-07-02T07:28:55;97858.44;;;21.52;56.62
67842;BME280;54642;59.126;37.876;2023-07-02T07:31:24;97997.13;;;22.26;56.28
67842;BME280;54642;59.126;37.876;2023-07-02T07:33:50;97987.47;;;22.05;55.64
67842;BME280;54642;59.126;37.876;2023-07-02T07:36:16;97998.13;;;22.25;55.27
67842;BME280;54642;59.126;37.876;2023-07-02T07:38:45;97989.69;;;22.31;54.12
67842;BME280;54642;59.126;37.876;2023-07-02T07:41:11;98002.91;;;22.41;53.50
67842;BME280;54642;59.126;37.876;2023-07-02T07:43:37;98022.50;;;22.38;53.01
67842;BME280;54642;59.126;37.876;2023-07-02T07:46:02;98020.53;;;22.09;52.31
67842;BME280;54642;59.126;37.876;2023-07-02T07:48:28;97975.00;;;21.65;52.14
67842;BME280;54642;59.126;37.876;2023-07-02T07:50:54;98017.63;;;21.70;52.75
67842;BME280;54642;59.126;37.876;2023-07-02T07:53:20;98024.19;;;21.76;52.92
67842;BME280;54642;59.126;37.876;2023-07-02T07:55:46;97996.47;;;21.82;52.55
67842;BME280;54642;59.126;37.876;2023-07-02T07:58:12;97993.50;;;21.96;52.36
67842;BME280;54642;59.126;37.876;2023-07-02T08:00:38;98015.50;;;22.27;52.03
67842;BME280;54642;59.126;37.876;2023-07-02T08:03:04;97971.28;;;22.20;51.86
67842;BME280;54642;59.126;37.876;2023-07-02T08:05:30;97971.91;;;22.33;50.99
67842;BME280;54642;59.126;37.876;2023-07-02T08:07:56;98009.97;;;22.71;50.63
67842;BME280;54642;59.126;37.876;2023-07-02T08:10:23;97988.44;;;22.76;50.67
67842;BME280;54642;59.126;37.876;2023-07-02T08:12:50;98014.84;;;23.16;50.37
67842;BME280;54642;59.126;37.876;2023-07-02T08:15:18;97997.84;;;23.19;49.86
67842;BME280;54642;59.126;37.876;2023-07-02T08:17:44;98000.50;;;23.19;48.42
67842;BME280;54642;59.126;37.876;2023-07-02T08:20:10;98030.13;;;23.22;48.54
67842;BME280;54642;59.126;37.876;2023-07-02T08:22:40;98028.19;;;23.25;48.62
67842;BME280;54642;59.126;37.876;2023-07-02T08:25:06;98022.88;;;23.25;48.81
67842;BME280;54642;59.126;37.876;2023-07-02T08:27:33;98026.09;;;23.28;47.46
67842;BME280;54642;59.126;37.876;2023-07-02T08:29:59;98012.75;;;23.20;46.34
67842;BME280;54642;59.126;37.876;2023-07-02T08:32:24;98025.41;;;23.16;46.64
67842;BME280;54642;59.126;37.876;2023-07-02T08:34:50;97990.00;;;22.98;46.81
67842;BME280;54642;59.126;37.876;2023-07-02T08:37:17;98021.25;;;23.24;46.20
67842;BME280;54642;59.126;37.876;2023-07-02T08:39:45;98023.44;;;23.18;46.34
67842;BME280;54642;59.126;37.876;2023-07-02T08:42:11;97966.38;;;22.87;46.80
67842;BME280;54642;59.126;37.876;2023-07-02T08:44:37;98019.25;;;23.06;46.46
67842;BME280;54642;59.126;37.876;2023-07-02T08:47:03;98040.63;;;23.03;46.87
67842;BME280;54642;59.126;37.876;2023-07-02T08:49:31;98014.47;;;22.90;47.22
67842;BME280;54642;59.126;37.876;2023-07-02T08:51:57;97981.66;;;22.73;46.82
67842;BME280;54642;59.126;37.876;2023-07-02T08:54:23;98037.34;;;23.20;46.67
67842;BME280;54642;59.126;37.876;2023-07-02T08:56:49;98031.41;;;23.38;46.54
67842;BME280;54642;59.126;37.876;2023-07-02T08:59:15;98044.34;;;23.51;46.20
67842;BME280;54642;59.126;37.876;2023-07-02T09:01:49;98003.72;;;23.42;46.19
67842;BME280;54642;59.126;37.876;2023-07-02T09:04:20;98033.06;;;23.58;46.72
67842;BME280;54642;59.126;37.876;2023-07-02T09:06:48;98017.19;;;23.29;47.60
67842;BME280;54642;59.126;37.876;2023-07-02T09:09:15;98028.47;;;23.41;47.48
67842;BME280;54642;59.126;37.876;2023-07-02T09:11:50;97985.91;;;23.25;46.30
67842;BME280;54642;59.126;37.876;2023-07-02T09:14:30;98045.59;;;23.66;45.81
67842;BME280;54642;59.126;37.876;2023-07-02T09:17:14;98019.16;;;23.47;45.78
67842;BME280;54642;59.126;37.876;2023-07-02T09:19:50;98012.75;;;23.49;45.89
67842;BME280;54642;59.126;37.876;2023-07-02T09:22:16;98000.09;;;23.43;45.86
67842;BME280;54642;59.126;37.876;2023-07-02T09:24:53;98047.94;;;23.79;46.24
67842;BME280;54642;59.126;37.876;2023-07-02T09:27:20;98029.56;;;23.48;45.93
67842;BME280;54642;59.126;37.876;2023-07-02T09:29:51;98046.97;;;23.41;46.03
67842;BME280;54642;59.126;37.876;2023-07-02T09:32:25;98050.59;;;23.40;45.52
67842;BME280;54642;59.126;37.876;2023-07-02T09:34:54;97992.59;;;23.09;44.72
67842;BME280;54642;59.126;37.876;2023-07-02T09:37:21;98058.81;;;23.56;44.96
67842;BME280;54642;59.126;37.876;2023-07-02T09:39:50;98025.41;;;23.46;44.95
67842;BME280;54642;59.126;37.876;2023-07-02T09:42:17;98054.63;;;23.64;44.89
67842;BME280;54642;59.126;37.876;2023-07-02T09:44:45;98062.16;;;23.68;44.74
67842;BME280;54642;59.126;37.876;2023-07-02T09:47:12;98054.22;;;23.58;45.20
67842;BME280;54642;59.126;37.876;2023-07-02T09:49:45;98043.50;;;23.50;45.98
67842;BME280;54642;59.126;37.876;2023-07-02T09:52:14;98017.75;;;23.13;46.25
67842;BME280;54642;59.126;37.876;2023-07-02T09:54:41;97987.75;;;22.83;46.33
67842;BME280;54642;59.126;37.876;2023-07-02T09:57:07;98040.63;;;23.03;46.04
67842;BME280;54642;59.126;37.876;2023-07-02T09:59:33;98069.34;;;23.17;46.35
67842;BME280;54642;59.126;37.876;2023-07-02T10:01:59;98015.34;;;23.00;46.28
67842;BME280;54642;59.126;37.876;2023-07-02T10:04:25;98025.41;;;23.16;45.88
67842;BME280;54642;59.126;37.876;2023-07-02T10:06:56;98032.94;;;23.31;45.29
67842;BME280;54642;59.126;37.876;2023-07-02T10:09:39;97997.94;;;22.88;45.04
67842;BME280;54642;59.126;37.876;2023-07-02T10:14:42;98073.41;;;23.21;45.34
67842;BME280;54642;59.126;37.876;2023-07-02T10:17:09;98056.28;;;23.26;45.24
67842;BME280;54642;59.126;37.876;2023-07-02T10:19:35;98048.78;;;23.31;45.17
67842;BME280;54642;59.126;37.876;2023-07-02T10:22:02;98037.91;;;23.14;44.98
67842;BME280;54642;59.126;37.876;2023-07-02T10:24:29;98066.00;;;23.15;44.90
67842;BME280;54642;59.126;37.876;2023-07-02T10:26:59;97997.31;;;22.65;45.31
67842;BME280;54642;59.126;37.876;2023-07-02T10:29:26;98041.94;;;23.18;45.23
67842;BME280;54642;59.126;37.876;2023-07-02T10:31:57;98058.81;;;23.47;45.50
67842;BME280;54642;59.126;37.876;2023-07-02T10:34:34;98065.63;;;23.49;45.38
67842;BME280;54642;59.126;37.876;2023-07-02T10:37:01;98071.75;;;23.59;44.72
67842;BME280;54642;59.126;37.876;2023-07-02T10:39:31;98021.78;;;23.37;44.46
67842;BME280;54642;59.126;37.876;2023-07-02T10:42:04;98079.00;;;23.77;44.93
67842;BME280;54642;59.126;37.876;2023-07-02T10:44:33;98069.69;;;23.83;45.07
67842;BME280;54642;59.126;37.876;2023-07-02T10:46:59;98017.06;;;23.60;44.21
67842;BME280;54642;59.126;37.876;2023-07-02T10:49:32;98064.97;;;23.86;43.28
67842;BME280;54642;59.126;37.876;2023-07-02T10:51:59;98049.63;;;23.80;43.62
67842;BME280;54642;59.126;37.876;2023-07-02T10:54:26;98076.50;;;23.85;43.06
67842;BME280;54642;59.126;37.876;2023-07-02T10:56:57;98070.78;;;23.80;43.54
67842;BME280;54642;59.126;37.876;2023-07-02T10:59:23;98076.78;;;23.82;44.73
67842;BME280;54642;59.126;37.876;2023-07-02T11:01:50;98067.69;;;23.75;44.32
67842;BME280;54642;59.126;37.876;2023-07-02T11:04:16;98071.63;;;23.61;44.49
67842;BME280;54642;59.126;37.876;2023-07-02T11:06:42;98085.81;;;23.60;44.10
67842;BME280;54642;59.126;37.876;2023-07-02T11:09:18;98088.56;;;23.58;44.55
67842;BME280;54642;59.126;37.876;2023-07-02T11:11:59;98032.06;;;23.20;44.43
67842;BME280;54642;59.126;37.876;2023-07-02T11:14:35;98056.97;;;23.37;44.54
67842;BME280;54642;59.126;37.876;2023-07-02T11:17:06;98066.03;;;23.54;44.22
67842;BME280;54642;59.126;37.876;2023-07-02T11:19:33;98017.75;;;23.42;43.67
67842;BME280;54642;59.126;37.876;2023-07-02T11:21:59;98100.84;;;23.59;43.88
67842;BME280;54642;59.126;37.876;2023-07-02T11:24:34;98085.50;;;23.53;43.94
67842;BME280;54642;59.126;37.876;2023-07-02T11:27:01;98057.13;;;23.46;43.66
67842;BME280;54642;59.126;37.876;2023-07-02T11:29:32;98092.81;;;23.81;44.01
67842;BME280;54642;59.126;37.876;2023-07-02T11:32:08;98091.97;;;23.90;43.91
67842;BME280;54642;59.126;37.876;2023-07-02T11:34:38;98102.78;;;23.96;43.51
67842;BME280;54642;59.126;37.876;2023-07-02T11:37:05;98091.66;;;24.03;44.15
67842;BME280;54642;59.126;37.876;2023-07-02T11:39:31;98068.41;;;24.06;44.74
67842;BME280;54642;59.126;37.876;2023-07-02T11:41:57;98067.97;;;24.11;44.60
67842;BME280;54642;59.126;37.876;2023-07-02T11:44:24;98081.59;;;24.26;44.32
67842;BME280;54642;59.126;37.876;2023-07-02T11:46:50;98024.97;;;23.79;43.77
67842;BME280;54642;59.126;37.876;2023-07-02T11:49:16;98098.91;;;24.01;43.74
67842;BME280;54642;59.126;37.876;2023-07-02T11:51:43;98094.72;;;23.69;44.30
67842;BME280;54642;59.126;37.876;2023-07-02T11:54:18;98084.13;;;23.78;43.99
67842;BME280;54642;59.126;37.876;2023-07-02T11:56:46;98103.34;;;24.00;44.33
67842;BME280;54642;59.126;37.876;2023-07-02T11:59:12;98091.50;;;24.14;43.29
67842;BME280;54642;59.126;37.876;2023-07-02T12:01:38;98076.88;;;24.20;42.94
67842;BME280;54642;59.126;37.876;2023-07-02T12:04:04;98090.50;;;24.34;42.62
67842;BME280;54642;59.126;37.876;2023-07-02T12:06:31;98090.38;;;24.36;42.12
67842;BME280;54642;59.126;37.876;2023-07-02T12:08:57;98022.91;;;23.83;42.05
67842;BME280;54642;59.126;37.876;2023-07-02T12:11:23;98085.47;;;24.31;42.71
67842;BME280;54642;59.126;37.876;2023-07-02T12:13:48;98082.78;;;24.41;42.34
67842;BME280;54642;59.126;37.876;2023-07-02T12:16:14;98101.91;;;24.54;42.19
67842;BME280;54642;59.126;37.876;2023-07-02T12:18:40;98049.69;;;24.27;41.95
67842;BME280;54642;59.126;37.876;2023-07-02T12:21:06;98083.75;;;24.60;42.13
67842;BME280;54642;59.126;37.876;2023-07-02T12:23:32;98099.34;;;24.63;41.80
67842;BME280;54642;59.126;37.876;2023-07-02T12:25:58;98114.25;;;24.73;42.25
67842;BME280;54642;59.126;37.876;2023-07-02T12:28:24;98094.44;;;24.78;42.24
67842;BME280;54642;59.126;37.876;2023-07-02T12:30:50;98080.50;;;24.76;42.38
67842;BME280;54642;59.126;37.876;2023-07-02T12:33:16;98085.56;;;24.59;41.39
67842;BME280;54642;59.126;37.876;2023-07-02T12:35:42;98105.78;;;24.60;41.97
67842;BME280;54642;59.126;37.876;2023-07-02T12:38:08;98073.25;;;24.21;41.80
67842;BME280;54642;59.126;37.876;2023-07-02T12:40:34;98059.66;;;23.86;42.29
67842;BME280;54642;59.126;37.876;2023-07-02T12:43:00;98118.97;;;23.93;42.59
67842;BME280;54642;59.126;37.876;2023-07-02T12:45:26;98105.06;;;23.91;42.81
67842;BME280;54642;59.126;37.876;2023-07-02T12:47:51;98081.34;;;24.00;42.48
67842;BME280;54642;59.126;37.876;2023-07-02T12:50:18;98108.91;;;24.26;42.70
67842;BME280;54642;59.126;37.876;2023-07-02T12:52:44;98119.72;;;24.43;42.64
67842;BME280;54642;59.126;37.876;2023-07-02T12:55:09;98079.38;;;24.21;42.39
67842;BME280;54642;59.126;37.876;2023-07-02T12:57:35;98118.06;;;24.42;41.46